^^
Saratoga-Weather Station Historical Data
Daily Summary for September 30, 2022 Units:  English    Metric   Both
Daily Weekly Monthly Yearly Custom
  High: Low: Average:
Temperature: 61.3 °F 39 °F 46.8 °F
Dew Point: 53.2 °F 37.9 °F 43 °F
Humidity: 97% 55% 88%
Wind Speed: 6mph 0mph 0.6mph
Wind Gust: 7mph - -
Wind- - South
Pressure: 29.9 in 29.7 in -
Precipitation: 0.01 in    
Historical Graphs
 
 
Tabular Data for September 30, 2022
Time Temperature Dew Point Pressure Wind Wind Speed Wind Gust Humidity Rainfall Rate (Hourly) solar
00:01 42.6 °F 41.4 °F 29.7 in Calm     95% 0 in 0 W/m2
00:06 42.4 °F 41.2 °F 29.7 in Calm     95% 0 in 0 W/m2
00:11 42.4 °F 41.2 °F 29.7 in Calm     95% 0 in 0 W/m2
00:16 42.4 °F 41.2 °F 29.7 in Calm     95% 0 in 0 W/m2
00:21 42.4 °F 41.2 °F 29.7 in Calm     95% 0 in 0 W/m2
00:26 42.4 °F 41.2 °F 29.7 in Calm     95% 0 in 0 W/m2
00:31 42.4 °F 41.2 °F 29.7 in Calm     95% 0 in 0 W/m2
00:36 42.3 °F 41 °F 29.7 in Calm     95% 0 in 0 W/m2
00:41 42.3 °F 41 °F 29.7 in Calm     95% 0 in 0 W/m2
00:46 42.3 °F 41 °F 29.8 in Calm     95% 0 in 0 W/m2
00:51 42.3 °F 41 °F 29.8 in Calm     95% 0 in 0 W/m2
00:56 42.3 °F 41 °F 29.7 in Calm     95% 0 in 0 W/m2
01:01 42.1 °F 40.8 °F 29.7 in Calm     95% 0 in 0 W/m2
01:06 42.1 °F 40.8 °F 29.7 in Calm     95% 0 in 0 W/m2
01:11 42.1 °F 40.8 °F 29.7 in Calm     95% 0 in 0 W/m2
01:16 41.9 °F 40.6 °F 29.7 in Calm     95% 0 in 0 W/m2
01:21 41.7 °F 40.5 °F 29.7 in Calm     95% 0 in 0 W/m2
01:26 41.7 °F 40.5 °F 29.7 in Calm     95% 0 in 0 W/m2
01:31 41.5 °F 40.3 °F 29.7 in Calm     95% 0 in 0 W/m2
01:36 41.5 °F 40.3 °F 29.7 in Calm     95% 0 in 0 W/m2
01:41 41.4 °F 40.1 °F 29.8 in Calm     95% 0 in 0 W/m2
01:46 41.4 °F 40.3 °F 29.8 in Calm     96% 0 in 0 W/m2
01:51 41.4 °F 40.3 °F 29.8 in Calm     96% 0 in 0 W/m2
01:56 41.2 °F 39.9 °F 29.8 in Calm     95% 0 in 0 W/m2
02:01 41 °F 39.7 °F 29.8 in Calm     95% 0 in 0 W/m2
02:06 41 °F 39.7 °F 29.8 in Calm     95% 0 in 0 W/m2
02:11 40.8 °F 39.6 °F 29.8 in Calm     95% 0 in 0 W/m2
02:16 40.8 °F 39.6 °F 29.8 in Calm     95% 0 in 0 W/m2
02:21 40.8 °F 39.7 °F 29.8 in Calm     96% 0 in 0 W/m2
02:26 40.8 °F 39.7 °F 29.8 in Calm     96% 0 in 0 W/m2
02:31 40.6 °F 39.6 °F 29.8 in Calm     96% 0 in 0 W/m2
02:36 40.6 °F 39.6 °F 29.8 in Calm     96% 0 in 0 W/m2
02:41 40.5 °F 39.2 °F 29.8 in Calm     95% 0 in 0 W/m2
02:46 40.5 °F 39.2 °F 29.8 in Calm     95% 0 in 0 W/m2
02:51 40.3 °F 39 °F 29.8 in Calm     95% 0 in 0 W/m2
02:56 40.3 °F 39.2 °F 29.8 in Calm     96% 0 in 0 W/m2
03:01 40.3 °F 39.2 °F 29.8 in Calm     96% 0 in 0 W/m2
03:06 40.3 °F 39.2 °F 29.8 in Calm     96% 0 in 0 W/m2
03:11 40.1 °F 39 °F 29.8 in Calm     96% 0 in 0 W/m2
03:16 39.9 °F 38.7 °F 29.8 in Calm     95% 0 in 0 W/m2
03:21 39.9 °F 38.8 °F 29.8 in Calm     96% 0 in 0 W/m2
03:26 39.9 °F 38.8 °F 29.8 in Calm     96% 0 in 0 W/m2
03:31 39.7 °F 38.7 °F 29.8 in Calm     96% 0 in 0 W/m2
03:36 39.7 °F 38.7 °F 29.8 in Calm     96% 0 in 0 W/m2
03:41 39.7 °F 38.7 °F 29.8 in Calm     96% 0 in 0 W/m2
03:46 39.6 °F 38.5 °F 29.8 in South 0.9 mph 2 mph 96% 0 in 0 W/m2
03:51 39.6 °F 38.5 °F 29.8 in South 0.9 mph 2 mph 96% 0 in 0 W/m2
03:56 39.6 °F 38.5 °F 29.8 in Calm     96% 0 in 0 W/m2
04:01 39.6 °F 38.5 °F 29.8 in Calm   2 mph 96% 0 in 0 W/m2
04:06 39.6 °F 38.5 °F 29.8 in Calm     96% 0 in 0 W/m2
04:11 39.6 °F 38.5 °F 29.8 in South 0.9 mph 1 mph 96% 0 in 0 W/m2
04:16 39.7 °F 38.7 °F 29.8 in Calm   1 mph 96% 0 in 0 W/m2
04:21 39.7 °F 38.7 °F 29.8 in Calm     96% 0.01 in 0 W/m2
04:26 39.7 °F 38.7 °F 29.8 in Calm   2 mph 96% 0.01 in 0 W/m2
04:31 39.9 °F 38.8 °F 29.8 in SSW 0.9 mph 1 mph 96% 0.01 in 0 W/m2
04:37 40.3 °F 39.2 °F 29.8 in Calm     96% 0.01 in 0 W/m2
04:42 40.3 °F 39.2 °F 29.8 in Calm   1 mph 96% 0.01 in 0 W/m2
04:47 40.5 °F 39.4 °F 29.8 in SSW 0.9 mph 2 mph 96% 0.01 in 0 W/m2
04:52 40.5 °F 39.4 °F 29.8 in Calm     96% 0.01 in 0 W/m2
04:57 40.3 °F 39.2 °F 29.8 in SSW 0.9 mph 2 mph 96% 0.01 in 0 W/m2
05:02 40.3 °F 39.2 °F 29.8 in Calm   1 mph 96% 0.01 in 0 W/m2
05:07 40.1 °F 39 °F 29.8 in Calm   1 mph 96% 0.01 in 0 W/m2
05:12 39.9 °F 38.8 °F 29.8 in Calm     96% 0.01 in 0 W/m2
05:17 39.9 °F 38.8 °F 29.8 in Calm     96% 0.01 in 0 W/m2
05:22 39.7 °F 38.7 °F 29.8 in Calm     96% 0 in 0 W/m2
05:27 39.7 °F 38.7 °F 29.8 in Calm     96% 0 in 0 W/m2
05:32 39.6 °F 38.5 °F 29.8 in Calm     96% 0 in 0 W/m2
05:37 39.6 °F 38.5 °F 29.8 in Calm     96% 0 in 0 W/m2
05:42 39.4 °F 38.3 °F 29.8 in Calm     96% 0 in 0 W/m2
05:47 39.2 °F 38.1 °F 29.8 in Calm     96% 0 in 0 W/m2
05:52 39 °F 37.9 °F 29.8 in Calm     96% 0 in 0 W/m2
05:57 39 °F 37.9 °F 29.8 in Calm     96% 0 in 0 W/m2
06:02 39 °F 37.9 °F 29.8 in Calm     96% 0 in 0 W/m2
06:07 39 °F 37.9 °F 29.8 in Calm     96% 0 in 0 W/m2
06:12 39 °F 37.9 °F 29.8 in SSW 2 mph 2 mph 96% 0 in 0 W/m2
06:17 39.2 °F 38.1 °F 29.8 in SSW 0.9 mph 1 mph 96% 0 in 0 W/m2
06:22 39.2 °F 38.1 °F 29.8 in SSW 0.9 mph 1 mph 96% 0 in 0 W/m2
06:27 39.2 °F 38.1 °F 29.8 in Calm     96% 0 in 0 W/m2
06:32 39 °F 37.9 °F 29.8 in Calm     96% 0 in 0 W/m2
06:37 39 °F 37.9 °F 29.8 in Calm     96% 0 in 0 W/m2
06:42 39 °F 37.9 °F 29.8 in Calm   1 mph 96% 0 in 0 W/m2
06:47 39 °F 37.9 °F 29.8 in Calm     96% 0 in 0 W/m2
06:52 39 °F 37.9 °F 29.8 in Calm     96% 0 in 0 W/m2
06:57 39 °F 37.9 °F 29.8 in Calm     96% 0 in 0 W/m2
07:02 39.2 °F 38.1 °F 29.8 in Calm     96% 0 in 0 W/m2
07:07 39.2 °F 38.1 °F 29.8 in Calm     96% 0 in 0 W/m2
07:12 39.2 °F 38.1 °F 29.8 in Calm     96% 0 in 0 W/m2
07:17 39 °F 37.9 °F 29.8 in Calm     96% 0 in 0 W/m2
07:22 39 °F 37.9 °F 29.8 in Calm     96% 0 in 0 W/m2
07:27 39 °F 37.9 °F 29.8 in Calm     96% 0 in 0 W/m2
07:32 39.2 °F 38.1 °F 29.8 in Calm     96% 0 in 0 W/m2
07:37 39.2 °F 38.1 °F 29.8 in Calm     96% 0 in 0 W/m2
07:42 39.4 °F 38.3 °F 29.8 in Calm     96% 0 in 0 W/m2
07:47 39.4 °F 38.3 °F 29.8 in Calm     96% 0 in 5 W/m2
07:52 39.4 °F 38.3 °F 29.8 in Calm     96% 0 in 7 W/m2
07:57 39.4 °F 38.3 °F 29.8 in Calm     96% 0 in 11 W/m2
08:02 39.4 °F 38.3 °F 29.8 in Calm     96% 0 in 12 W/m2
08:07 39.4 °F 38.3 °F 29.8 in Calm     96% 0 in 18 W/m2
08:12 39.6 °F 38.5 °F 29.8 in Calm     96% 0 in 19 W/m2
08:17 39.6 °F 38.5 °F 29.8 in Calm     96% 0 in 25 W/m2
08:22 39.6 °F 38.5 °F 29.8 in Calm     96% 0 in 30 W/m2
08:27 39.7 °F 38.7 °F 29.8 in Calm   1 mph 96% 0 in 28 W/m2
08:32 39.7 °F 38.7 °F 29.8 in Calm     96% 0 in 28 W/m2
08:37 39.7 °F 38.7 °F 29.9 in Calm     96% 0 in 33 W/m2
08:42 39.6 °F 38.5 °F 29.9 in Calm     96% 0 in 37 W/m2
08:47 39.7 °F 38.7 °F 29.9 in Calm     96% 0 in 46 W/m2
08:52 39.7 °F 38.7 °F 29.9 in Calm     96% 0 in 58 W/m2
08:57 39.7 °F 39 °F 29.9 in Calm     97% 0 in 60 W/m2
09:02 39.9 °F 39.2 °F 29.9 in Calm     97% 0 in 63 W/m2
09:07 40.1 °F 39.4 °F 29.9 in Calm   1 mph 97% 0 in 70 W/m2
09:12 40.3 °F 39.6 °F 29.9 in Calm   1 mph 97% 0 in 77 W/m2
09:17 40.5 °F 39.4 °F 29.9 in Calm   1 mph 96% 0 in 79 W/m2
09:22 40.5 °F 39.4 °F 29.9 in ESE 0.9 mph 3 mph 96% 0 in 81 W/m2
09:27 40.3 °F 39.2 °F 29.9 in Calm   2 mph 96% 0 in 88 W/m2
09:32 40.5 °F 39.4 °F 29.9 in ENE 0.9 mph 1 mph 96% 0 in 90 W/m2
09:37 40.3 °F 39.2 °F 29.9 in NNW 0.9 mph 2 mph 96% 0 in 90 W/m2
09:42 40.3 °F 39.2 °F 29.9 in Calm   1 mph 96% 0 in 93 W/m2
09:47 40.5 °F 39.4 °F 29.9 in Calm   2 mph 96% 0 in 95 W/m2
09:52 40.5 °F 39.7 °F 29.9 in Calm   1 mph 97% 0 in 100 W/m2
09:57 40.6 °F 39.9 °F 29.9 in ESE 0.9 mph 3 mph 97% 0 in 100 W/m2
10:02 40.8 °F 40.1 °F 29.9 in ESE 0.9 mph 2 mph 97% 0 in 109 W/m2
10:07 41 °F 40.3 °F 29.9 in ENE 0.9 mph 3 mph 97% 0 in 127 W/m2
10:12 41 °F 40.3 °F 29.9 in Calm   2 mph 97% 0 in 123 W/m2
10:17 41.2 °F 40.5 °F 29.9 in Calm     97% 0 in 127 W/m2
10:22 41.2 °F 40.5 °F 29.9 in Calm   1 mph 97% 0 in 132 W/m2
10:27 41.4 °F 40.6 °F 29.9 in Calm   1 mph 97% 0 in 142 W/m2
10:32 41.5 °F 40.8 °F 29.9 in Calm     97% 0 in 141 W/m2
10:37 41.7 °F 41 °F 29.9 in Calm   1 mph 97% 0 in 144 W/m2
10:42 42.1 °F 41.4 °F 29.9 in Calm   1 mph 97% 0 in 137 W/m2
10:47 42.3 °F 41.5 °F 29.9 in Calm   1 mph 97% 0 in 160 W/m2
10:52 42.4 °F 41.7 °F 29.9 in East 0.9 mph 3 mph 97% 0 in 171 W/m2
10:57 42.6 °F 41.9 °F 29.9 in East 2 mph 3 mph 97% 0 in 186 W/m2
11:02 42.6 °F 41.9 °F 29.9 in ESE 2 mph 3 mph 97% 0 in 192 W/m2
11:07 43 °F 42.3 °F 29.9 in NE 0.9 mph 4 mph 97% 0 in 185 W/m2
11:12 43 °F 42.3 °F 29.9 in NE 2 mph 2 mph 97% 0 in 178 W/m2
11:17 43.2 °F 42.4 °F 29.9 in NE 2 mph 3 mph 97% 0 in 188 W/m2
11:22 43.5 °F 42.8 °F 29.9 in ENE 0.9 mph 3 mph 97% 0 in 172 W/m2
11:27 43.7 °F 43 °F 29.9 in NE 2.9 mph 3 mph 97% 0 in 190 W/m2
11:32 43.9 °F 43.2 °F 29.9 in ENE 2 mph 4 mph 97% 0 in 185 W/m2
11:37 44.1 °F 43.3 °F 29.9 in East 2 mph 2 mph 97% 0 in 163 W/m2
11:42 44.2 °F 43.5 °F 29.9 in ENE 0.9 mph 4 mph 97% 0 in 192 W/m2
11:47 44.2 °F 43.5 °F 29.9 in ESE 0.9 mph 4 mph 97% 0 in 216 W/m2
11:52 44.4 °F 43.7 °F 29.9 in SE 0.9 mph 3 mph 97% 0 in 236 W/m2
11:57 44.8 °F 44.1 °F 29.9 in ENE 0.9 mph 4 mph 97% 0 in 243 W/m2
12:02 45.1 °F 44.4 °F 29.9 in ESE 0.9 mph 2 mph 97% 0 in 244 W/m2
12:07 45.3 °F 44.6 °F 29.9 in East 0.9 mph 3 mph 97% 0 in 250 W/m2
12:12 45.7 °F 45 °F 29.9 in SE 2.9 mph 5 mph 97% 0 in 213 W/m2
12:17 45.9 °F 45.1 °F 29.9 in ENE 2 mph 4 mph 97% 0 in 318 W/m2
12:22 46 °F 45.3 °F 29.9 in East 2 mph 4 mph 97% 0 in 265 W/m2
12:27 46.2 °F 45.5 °F 29.9 in East 4 mph 4 mph 97% 0 in 213 W/m2
12:32 46.4 °F 45.7 °F 29.9 in ESE 2.9 mph 3 mph 97% 0 in 234 W/m2
12:37 46.6 °F 45.9 °F 29.9 in East 4 mph 4 mph 97% 0 in 236 W/m2
12:42 46.8 °F 46 °F 29.9 in ESE 2 mph 3 mph 97% 0 in 271 W/m2
12:47 46.9 °F 46.2 °F 29.9 in ENE 2.9 mph 4 mph 97% 0 in 271 W/m2
12:52 46.9 °F 46.2 °F 29.9 in Calm   3 mph 97% 0 in 401 W/m2
12:57 47.1 °F 46.4 °F 29.9 in ENE 0.9 mph 2 mph 97% 0 in 274 W/m2
13:02 47.8 °F 46.9 °F 29.9 in NE 2.9 mph 3 mph 97% 0 in 668 W/m2
13:07 48.4 °F 47.5 °F 29.9 in NE 2 mph 3 mph 97% 0 in 591 W/m2
13:12 48.9 °F 48 °F 29.9 in ENE 0.9 mph 2 mph 97% 0 in 582 W/m2
13:17 49.6 °F 48.7 °F 29.9 in East 0.9 mph 4 mph 97% 0 in 589 W/m2
13:22 50.2 °F 49.3 °F 29.9 in Calm   2 mph 97% 0 in 580 W/m2
13:27 50.5 °F 49.6 °F 29.9 in NE 2 mph 4 mph 97% 0 in 599 W/m2
13:32 51.1 °F 50.2 °F 29.9 in Calm   3 mph 97% 0 in 606 W/m2
13:37 51.6 °F 50.7 °F 29.9 in East 2 mph 3 mph 97% 0 in 603 W/m2
13:42 52.2 °F 51.3 °F 29.9 in East 2.9 mph 3 mph 97% 0 in 608 W/m2
13:47 52.5 °F 51.6 °F 29.9 in ESE 2.9 mph 3 mph 97% 0 in 624 W/m2
13:52 53.2 °F 52.3 °F 29.9 in ENE 0.9 mph 4 mph 97% 0 in 624 W/m2
13:57 54 °F 53.1 °F 29.9 in NE 0.9 mph 3 mph 97% 0 in 622 W/m2
14:02 54.3 °F 53.2 °F 29.9 in East 0.9 mph 2 mph 96% 0 in 564 W/m2
14:07 55 °F 52.7 °F 29.9 in ENE 2 mph 3 mph 92% 0 in 69 W/m2
14:12 55.8 °F 52.3 °F 29.9 in NE 4 mph 5 mph 88% 0 in 67 W/m2
14:17 56.1 °F 51.4 °F 29.9 in ENE 0.9 mph 2 mph 84% 0 in 53 W/m2
14:22 56.5 °F 51.6 °F 29.9 in Calm   2 mph 84% 0 in 46 W/m2
14:27 56.3 °F 49.1 °F 29.9 in Calm   3 mph 77% 0 in 47 W/m2
14:32 56.3 °F 47.5 °F 29.9 in WNW 2 mph 6 mph 72% 0 in 44 W/m2
14:37 56.7 °F 47.7 °F 29.9 in WSW 2.9 mph 4 mph 72% 0 in 40 W/m2
14:42 57 °F 47.7 °F 29.9 in WNW 0.9 mph 2 mph 71% 0 in 40 W/m2
14:47 57.4 °F 47.7 °F 29.9 in West 4 mph 5 mph 70% 0 in 39 W/m2
14:52 57.6 °F 46.2 °F 29.9 in WSW 2.9 mph 4 mph 66% 0 in 209 W/m2
14:57 57.9 °F 48.6 °F 29.9 in Calm   1 mph 71% 0 in 207 W/m2
15:02 58.1 °F 47.1 °F 29.9 in SE 0.9 mph 3 mph 67% 0 in 554 W/m2
15:07 58.6 °F 46 °F 29.9 in NW 4 mph 5 mph 63% 0 in 510 W/m2
15:12 58.8 °F 47.1 °F 29.9 in SSW 0.9 mph 2 mph 65% 0 in 494 W/m2
15:17 59.2 °F 45.3 °F 29.9 in Calm   4 mph 60% 0 in 512 W/m2
15:22 59.4 °F 45 °F 29.9 in SW 2.9 mph 4 mph 59% 0 in 555 W/m2
15:28 59.5 °F 46 °F 29.9 in Calm   3 mph 61% 0 in 555 W/m2
15:33 59.9 °F 46.8 °F 29.9 in NW 0.9 mph 2 mph 62% 0 in 543 W/m2
15:38 60.3 °F 48.4 °F 29.9 in Calm   2 mph 65% 0 in 543 W/m2
15:43 60.4 °F 47.3 °F 29.9 in NNW 0.9 mph 4 mph 62% 0 in 538 W/m2
15:48 60.6 °F 46.6 °F 29.9 in WNW 0.9 mph 7 mph 60% 0 in 527 W/m2
15:53 60.6 °F 46.2 °F 29.9 in NE 2.9 mph 3 mph 59% 0 in 515 W/m2
15:58 60.6 °F 47.5 °F 29.9 in WNW 2 mph 7 mph 62% 0 in 499 W/m2
16:03 60.4 °F 47.8 °F 29.9 in Calm   3 mph 63% 0 in 485 W/m2
16:08 60.6 °F 46.6 °F 29.9 in WSW 2.9 mph 5 mph 60% 0 in 475 W/m2
16:13 61 °F 47.5 °F 29.9 in East 2 mph 2 mph 61% 0 in 466 W/m2
16:18 61 °F 45.1 °F 29.9 in NNW 0.9 mph 4 mph 56% 0 in 455 W/m2
16:23 61 °F 45.7 °F 29.9 in WSW 2 mph 3 mph 57% 0 in 443 W/m2
16:28 61 °F 45.1 °F 29.9 in NW 0.9 mph 4 mph 56% 0 in 434 W/m2
16:33 61 °F 45.1 °F 29.9 in WNW 6 mph 6 mph 56% 0 in 420 W/m2
16:38 61 °F 45.7 °F 29.9 in West 2 mph 4 mph 57% 0 in 408 W/m2
16:43 61.2 °F 45.9 °F 29.9 in WNW 2.9 mph 3 mph 57% 0 in 397 W/m2
16:48 61.2 °F 44.8 °F 29.9 in WSW 2 mph 4 mph 55% 0 in 387 W/m2
16:53 61.3 °F 45 °F 29.9 in West 0.9 mph 1 mph 55% 0 in 373 W/m2
16:58 61.3 °F 45 °F 29.9 in NW 0.9 mph 6 mph 55% 0 in 360 W/m2
17:03 61.3 °F 45.5 °F 29.9 in West 0.9 mph 4 mph 56% 0 in 350 W/m2
17:08 61.3 °F 46.4 °F 29.9 in Calm   6 mph 58% 0 in 334 W/m2
17:13 61.2 °F 45.9 °F 29.9 in NW 0.9 mph 2 mph 57% 0 in 322 W/m2
17:18 61.3 °F 46.9 °F 29.9 in East 2 mph 4 mph 59% 0 in 278 W/m2
17:23 61.3 °F 47.3 °F 29.9 in WNW 0.9 mph 2 mph 60% 0 in 199 W/m2
17:28 61 °F 46 °F 29.9 in Calm   1 mph 58% 0 in 193 W/m2
17:33 61 °F 46 °F 29.9 in Calm   2 mph 58% 0 in 250 W/m2
17:38 60.8 °F 45.9 °F 29.9 in SE 0.9 mph 4 mph 58% 0 in 267 W/m2
17:43 61 °F 49.1 °F 29.9 in Calm   1 mph 65% 0 in 241 W/m2
17:48 60.6 °F 47.5 °F 29.9 in Calm   4 mph 62% 0 in 221 W/m2
17:53 60.3 °F 48.4 °F 29.9 in SSW 0.9 mph 2 mph 65% 0 in 192 W/m2
17:58 60.4 °F 49.8 °F 29.9 in Calm     68% 0 in 172 W/m2
18:03 60.3 °F 49.3 °F 29.9 in Calm   1 mph 67% 0 in 146 W/m2
18:08 59.7 °F 48 °F 29.9 in Calm   1 mph 65% 0 in 28 W/m2
18:13 59.2 °F 49.1 °F 29.9 in SSW 0.9 mph 1 mph 69% 0 in 23 W/m2
18:18 58.5 °F 48.7 °F 29.9 in SSW 0.9 mph 2 mph 70% 0 in 21 W/m2
18:23 57.6 °F 46.8 °F 29.9 in NW 0.9 mph 3 mph 67% 0 in 23 W/m2
18:28 57.2 °F 48.2 °F 29.9 in Calm   1 mph 72% 0 in 23 W/m2
18:33 56.8 °F 48.2 °F 29.9 in Calm   3 mph 73% 0 in 23 W/m2
18:38 56.3 °F 48.2 °F 29.9 in WNW 0.9 mph 1 mph 74% 0 in 18 W/m2
18:43 55.8 °F 48 °F 29.9 in WNW 0.9 mph 2 mph 75% 0 in 14 W/m2
18:48 55.2 °F 47.8 °F 29.9 in Calm   1 mph 76% 0 in 12 W/m2
18:53 54.9 °F 47.8 °F 29.9 in WNW 0.9 mph 1 mph 77% 0 in 11 W/m2
18:58 54.1 °F 47.5 °F 29.9 in Calm   1 mph 78% 0 in 7 W/m2
19:03 53.8 °F 47.1 °F 29.9 in WNW 0.9 mph 1 mph 78% 0 in 5 W/m2
19:08 53.1 °F 46.8 °F 29.9 in WNW 0.9 mph 1 mph 79% 0 in 0 W/m2
19:13 52.7 °F 46.8 °F 29.9 in WNW 0.9 mph 1 mph 80% 0 in 0 W/m2
19:18 52.3 °F 46.8 °F 29.9 in Calm   1 mph 81% 0 in 0 W/m2
19:23 52.2 °F 46.6 °F 29.9 in Calm   1 mph 81% 0 in 0 W/m2
19:28 51.8 °F 46.4 °F 29.9 in WNW 0.9 mph 1 mph 82% 0 in 0 W/m2
19:33 51.4 °F 46.4 °F 29.9 in Calm     83% 0 in 0 W/m2
19:38 51.3 °F 46.2 °F 29.9 in Calm   1 mph 83% 0 in 0 W/m2
19:43 50.9 °F 45.9 °F 29.9 in Calm   2 mph 83% 0 in 0 W/m2
19:48 50.7 °F 46 °F 29.9 in WNW 0.9 mph 1 mph 84% 0 in 0 W/m2
19:53 50.5 °F 46.2 °F 29.9 in Calm   1 mph 85% 0 in 0 W/m2
19:58 50.5 °F 46.2 °F 29.9 in Calm   1 mph 85% 0 in 0 W/m2
20:03 50.5 °F 46.2 °F 29.9 in WNW 0.9 mph 1 mph 85% 0 in 0 W/m2
20:08 50.4 °F 46 °F 29.9 in WNW 0.9 mph 1 mph 85% 0 in 0 W/m2
20:13 50.2 °F 45.9 °F 29.9 in Calm     85% 0 in 0 W/m2
20:18 49.8 °F 45.5 °F 29.9 in Calm     85% 0 in 0 W/m2
20:23 49.6 °F 45.3 °F 29.9 in Calm     85% 0 in 0 W/m2
20:28 49.5 °F 45.5 °F 29.9 in Calm     86% 0 in 0 W/m2
20:33 49.3 °F 45.3 °F 29.9 in Calm     86% 0 in 0 W/m2
20:38 48.9 °F 45 °F 29.9 in Calm   1 mph 86% 0 in 0 W/m2
20:43 48.9 °F 45 °F 29.9 in Calm     86% 0 in 0 W/m2
20:48 48.7 °F 44.8 °F 29.9 in Calm   1 mph 86% 0 in 0 W/m2
20:53 48.7 °F 44.8 °F 29.9 in Calm   1 mph 86% 0 in 0 W/m2
20:58 48.7 °F 44.8 °F 29.9 in Calm     86% 0 in 0 W/m2
21:03 48.6 °F 44.6 °F 29.9 in Calm   1 mph 86% 0 in 0 W/m2
21:08 48.4 °F 44.4 °F 29.9 in Calm   1 mph 86% 0 in 0 W/m2
21:13 48.2 °F 44.2 °F 29.9 in Calm   1 mph 86% 0 in 0 W/m2
21:18 48.2 °F 44.2 °F 29.9 in Calm     86% 0 in 0 W/m2
21:23 48 °F 44.1 °F 29.9 in Calm   1 mph 86% 0 in 0 W/m2
21:28 47.8 °F 44.2 °F 29.9 in WNW 2 mph 2 mph 87% 0 in 0 W/m2
21:33 48 °F 44.1 °F 29.9 in Calm   1 mph 86% 0 in 0 W/m2
21:39 48 °F 44.1 °F 29.9 in Calm     86% 0 in 0 W/m2
21:44 47.8 °F 43.9 °F 29.9 in Calm     86% 0 in 0 W/m2
21:49 47.7 °F 44.1 °F 29.9 in Calm   2 mph 87% 0 in 0 W/m2
21:54 47.5 °F 43.9 °F 29.9 in Calm     87% 0 in 0 W/m2
21:59 47.3 °F 43.7 °F 29.9 in Calm   1 mph 87% 0 in 0 W/m2
22:04 47.1 °F 43.5 °F 29.9 in Calm   1 mph 87% 0 in 0 W/m2
22:09 46.9 °F 43.5 °F 29.9 in WSW 0.9 mph 1 mph 88% 0 in 0 W/m2
22:14 47.1 °F 43.7 °F 29.9 in Calm   2 mph 88% 0 in 0 W/m2
22:19 47.1 °F 43.7 °F 29.9 in Calm     88% 0 in 0 W/m2
22:24 46.9 °F 43.5 °F 29.9 in Calm   2 mph 88% 0 in 0 W/m2
22:29 46.9 °F 43.5 °F 29.9 in West 0.9 mph 1 mph 88% 0 in 0 W/m2
22:34 46.8 °F 43.7 °F 29.9 in Calm   2 mph 89% 0 in 0 W/m2
22:39 46.9 °F 43.9 °F 29.9 in Calm   1 mph 89% 0 in 0 W/m2
22:44 46.9 °F 43.5 °F 29.9 in Calm   1 mph 88% 0 in 0 W/m2
22:49 46.9 °F 43.5 °F 29.9 in NNW 0.9 mph 2 mph 88% 0 in 0 W/m2
22:54 46.8 °F 43.3 °F 29.9 in Calm   2 mph 88% 0 in 0 W/m2
22:59 46.8 °F 43.7 °F 29.9 in Calm     89% 0 in 0 W/m2
23:04 46.8 °F 43.7 °F 29.9 in Calm     89% 0 in 0 W/m2
23:09 46.6 °F 43.5 °F 29.9 in Calm   1 mph 89% 0 in 0 W/m2
23:14 46.6 °F 43.5 °F 29.9 in Calm   1 mph 89% 0 in 0 W/m2
23:19 46.8 °F 43.7 °F 29.9 in Calm   1 mph 89% 0 in 0 W/m2
23:24 46.8 °F 43.7 °F 29.9 in Calm     89% 0 in 0 W/m2
23:29 46.6 °F 43.5 °F 29.9 in SW 0.9 mph 1 mph 89% 0 in 0 W/m2
23:34 46.6 °F 43.5 °F 29.9 in Calm   1 mph 89% 0 in 0 W/m2
23:39 46.6 °F 43.9 °F 29.9 in Calm     90% 0 in 0 W/m2
23:44 46.6 °F 43.9 °F 29.9 in Calm     90% 0 in 0 W/m2
23:49 46.6 °F 43.9 °F 29.9 in Calm     90% 0 in 0 W/m2
23:54 46.6 °F 43.9 °F 29.9 in Calm   1 mph 90% 0 in 0 W/m2
23:59 46.8 °F 44.1 °F 29.9 in Calm     90% 0 in 0 W/m2
Juneau County Weather
Compliments of Weather Underground - 4 mb